Time;durP1;ratioP1;P1;durP2;ratioP2;P2;SDS_P1;SDS_P2;PMS_P1;PMS_P2;Temp;Humidity;BMP_temperature;BMP_pressure;BME280_temperature;BME280_humidity;BME280_pressure;Samples;Min_cycle;Max_cycle;Signal;HPM_P1;HPM_P2
2021/07/31 00:02:19;;;;;;;8.68;2.70;;;14.80;99.90;;;;;;6193458;22;20016;-85
2021/07/31 00:04:45;;;;;;;10.85;2.75;;;14.80;99.90;;;;;;6219697;22;20016;-85
2021/07/31 00:07:11;;;;;;;10.15;2.65;;;14.80;99.90;;;;;;6219576;22;20239;-85
2021/07/31 00:09:38;;;;;;;5.82;2.60;;;14.90;99.90;;;;;;6219434;22;20050;-86
2021/07/31 00:12:04;;;;;;;8.90;3.10;;;14.90;99.90;;;;;;6193824;22;20484;-86
2021/07/31 00:14:31;;;;;;;12.02;3.05;;;14.90;99.90;;;;;;6193661;22;20020;-86
2021/07/31 00:16:57;;;;;;;12.18;3.20;;;14.90;99.90;;;;;;6244786;22;20440;-86
2021/07/31 00:19:24;;;;;;;10.70;3.40;;;14.90;99.90;;;;;;6243886;22;20043;-86
2021/07/31 00:21:50;;;;;;;10.57;3.25;;;14.90;99.90;;;;;;6193855;22;20011;-86
2021/07/31 00:24:15;;;;;;;6.85;2.90;;;14.90;99.90;;;;;;6218400;22;20015;-85
2021/07/31 00:26:41;;;;;;;14.00;3.28;;;14.90;99.90;;;;;;6218982;22;20090;-85
2021/07/31 00:29:07;;;;;;;8.25;3.30;;;14.90;99.90;;;;;;6194072;22;20011;-85
2021/07/31 00:31:33;;;;;;;8.27;3.05;;;14.90;99.90;;;;;;6244472;22;20015;-85
2021/07/31 00:33:59;;;;;;;11.25;3.33;;;14.90;99.90;;;;;;6219042;22;20090;-85
2021/07/31 00:36:25;;;;;;;9.32;3.30;;;14.90;99.90;;;;;;6218393;22;20011;-86
2021/07/31 00:38:51;;;;;;;8.07;3.35;;;14.90;99.90;;;;;;6218214;22;20015;-86
2021/07/31 00:41:17;;;;;;;9.93;3.35;;;14.90;99.90;;;;;;6219011;22;20012;-86
2021/07/31 00:43:43;;;;;;;7.63;3.40;;;14.90;99.90;;;;;;6218900;22;20287;-86
2021/07/31 00:46:10;;;;;;;12.07;3.80;;;14.90;99.90;;;;;;6244172;22;20488;-86
2021/07/31 00:48:36;;;;;;;12.20;3.85;;;14.90;99.90;;;;;;6249900;22;20016;-87
2021/07/31 00:51:02;;;;;;;6.40;3.45;;;14.90;99.90;;;;;;6231418;22;20042;-85
2021/07/31 00:53:28;;;;;;;8.93;3.88;;;14.90;99.90;;;;;;6195438;22;20015;-86
2021/07/31 00:55:56;;;;;;;10.90;3.67;;;14.90;99.90;;;;;;6245820;22;20463;-85
2021/07/31 00:58:24;;;;;;;13.77;4.15;;;15.00;99.90;;;;;;6244753;22;20016;-87
2021/07/31 01:00:51;;;;;;;10.30;3.70;;;15.00;99.90;;;;;;6220104;22;20016;-88
2021/07/31 01:03:18;;;;;;;8.15;4.03;;;15.00;99.90;;;;;;6244947;22;20042;-86
2021/07/31 01:05:44;;;;;;;10.77;3.90;;;15.00;99.90;;;;;;6195740;22;20456;-85
2021/07/31 01:08:10;;;;;;;10.27;4.28;;;15.00;99.90;;;;;;6195114;22;20016;-86
2021/07/31 01:10:37;;;;;;;13.75;4.25;;;15.00;99.90;;;;;;6220308;22;20016;-86
2021/07/31 01:13:04;;;;;;;11.02;4.68;;;15.00;99.90;;;;;;6220637;22;20012;-85
2021/07/31 01:15:30;;;;;;;11.45;4.30;;;15.00;99.90;;;;;;6220840;22;20012;-86
2021/07/31 01:17:56;;;;;;;14.43;4.15;;;15.10;99.90;;;;;;6245363;22;20016;-87
2021/07/31 01:20:23;;;;;;;7.65;4.13;;;15.10;99.90;;;;;;6220054;22;20041;-85
2021/07/31 01:22:49;;;;;;;9.07;3.92;;;15.10;99.90;;;;;;6220702;22;20033;-86
2021/07/31 01:25:15;;;;;;;11.30;4.00;;;15.10;99.90;;;;;;6195360;22;20019;-86
2021/07/31 01:27:42;;;;;;;17.30;4.38;;;15.10;99.80;;;;;;6220138;22;20008;-87
2021/07/31 01:30:09;;;;;;;11.10;4.70;;;15.10;99.80;;;;;;6272066;22;20011;-86
2021/07/31 01:32:35;;;;;;;11.65;4.18;;;15.20;99.70;;;;;;6220541;22;20095;-85
2021/07/31 01:35:04;;;;;;;12.15;4.20;;;15.20;99.70;;;;;;6249211;22;20034;-89
2021/07/31 01:37:35;;;;;;;11.15;4.22;;;15.20;99.80;;;;;;6248001;22;20016;-89
2021/07/31 01:40:01;;;;;;;11.95;5.05;;;15.20;99.80;;;;;;6268916;22;20091;-87
2021/07/31 01:42:27;;;;;;;12.88;4.80;;;15.20;99.70;;;;;;6245540;22;20004;-84
2021/07/31 01:44:53;;;;;;;11.35;4.30;;;15.30;99.70;;;;;;6220260;22;20026;-86
2021/07/31 01:47:19;;;;;;;11.45;4.60;;;15.30;99.60;;;;;;6220207;22;20440;-86
2021/07/31 01:49:44;;;;;;;10.23;4.45;;;15.30;99.70;;;;;;6220555;22;20061;-85
2021/07/31 01:52:10;;;;;;;12.85;5.30;;;15.30;99.70;;;;;;6272734;22;20019;-84
2021/07/31 01:54:36;;;;;;;12.77;5.50;;;15.20;99.70;;;;;;6220453;22;20066;-86
2021/07/31 01:57:02;;;;;;;13.38;5.15;;;15.30;99.90;;;;;;6194848;22;20072;-84
2021/07/31 01:59:28;;;;;;;13.70;5.07;;;15.20;99.80;;;;;;6273173;22;20012;-84
2021/07/31 02:01:53;;;;;;;10.07;5.20;;;15.30;99.80;;;;;;6220205;22;20027;-84
2021/07/31 02:04:19;;;;;;;12.07;5.60;;;15.20;99.90;;;;;;6219949;22;20062;-87
2021/07/31 02:06:45;;;;;;;14.88;5.47;;;15.20;99.90;;;;;;6194932;22;20016;-86
2021/07/31 02:09:11;;;;;;;15.15;5.60;;;15.20;99.90;;;;;;6220316;22;20012;-86
2021/07/31 02:11:38;;;;;;;12.77;5.40;;;15.20;99.90;;;;;;6220593;22;20030;-85
2021/07/31 02:14:05;;;;;;;14.57;5.50;;;15.20;99.90;;;;;;6220907;22;20012;-84
2021/07/31 02:16:31;;;;;;;14.10;5.88;;;15.20;99.90;;;;;;6220523;22;20475;-85
2021/07/31 02:19:00;;;;;;;8.85;4.97;;;15.20;99.90;;;;;;6247106;22;20404;-86
2021/07/31 02:21:25;;;;;;;13.82;5.43;;;15.20;99.90;;;;;;6220237;22;20094;-85
2021/07/31 02:23:51;;;;;;;15.57;5.75;;;15.20;99.90;;;;;;6220242;22;20077;-85
2021/07/31 02:26:18;;;;;;;13.93;5.78;;;15.20;99.90;;;;;;6195397;22;20467;-86
2021/07/31 02:28:43;;;;;;;15.57;6.07;;;15.20;99.90;;;;;;6220485;22;20022;-85
2021/07/31 02:31:12;;;;;;;11.38;6.30;;;15.30;99.90;;;;;;6245243;22;20318;-87
2021/07/31 02:33:39;;;;;;;14.10;6.60;;;15.30;99.90;;;;;;6220797;22;20011;-85
2021/07/31 02:36:06;;;;;;;14.30;6.70;;;15.30;99.90;;;;;;6245343;22;20058;-85
2021/07/31 02:38:32;;;;;;;12.68;6.47;;;15.30;99.90;;;;;;6219857;22;20444;-85
2021/07/31 02:40:57;;;;;;;14.98;6.50;;;15.30;99.90;;;;;;6221151;22;20012;-85
2021/07/31 02:43:23;;;;;;;18.33;7.28;;;15.20;99.90;;;;;;6194849;22;20012;-85
2021/07/31 02:45:49;;;;;;;13.43;6.18;;;15.20;99.90;;;;;;6220978;22;20018;-87
2021/07/31 02:48:15;;;;;;;14.55;6.32;;;15.30;99.90;;;;;;6245140;22;20019;-86
2021/07/31 02:50:41;;;;;;;15.05;6.63;;;15.30;99.90;;;;;;6219749;22;20012;-84
2021/07/31 02:53:07;;;;;;;15.68;6.05;;;15.30;99.90;;;;;;6220053;22;20016;-86
2021/07/31 02:55:32;;;;;;;14.90;6.25;;;15.30;99.90;;;;;;6246068;22;20019;-87
2021/07/31 02:57:58;;;;;;;12.18;6.45;;;15.30;99.90;;;;;;6245638;22;20019;-86
2021/07/31 03:00:24;;;;;;;13.50;7.95;;;15.40;99.90;;;;;;6220814;22;20121;-85
2021/07/31 03:02:50;;;;;;;14.85;6.68;;;15.40;99.90;;;;;;6219801;22;20014;-84
2021/07/31 03:05:16;;;;;;;13.50;7.80;;;15.30;99.90;;;;;;6194666;22;20312;-85
2021/07/31 03:07:42;;;;;;;13.73;7.80;;;15.30;99.90;;;;;;6272595;22;20015;-87
2021/07/31 03:10:08;;;;;;;15.02;8.02;;;15.30;99.90;;;;;;6219579;22;20018;-86
2021/07/31 03:12:35;;;;;;;11.85;7.97;;;15.20;99.90;;;;;;6195776;22;20023;-85
2021/07/31 03:15:01;;;;;;;16.27;8.60;;;15.20;99.90;;;;;;6244894;22;20046;-85
2021/07/31 03:17:27;;;;;;;16.98;8.77;;;15.20;99.90;;;;;;6219798;22;20012;-86
2021/07/31 03:19:53;;;;;;;21.05;8.77;;;15.20;99.90;;;;;;6219336;22;20043;-86
2021/07/31 03:22:21;;;;;;;17.98;8.32;;;15.20;99.90;;;;;;6219894;22;20012;-87
2021/07/31 03:24:52;;;;;;;16.25;7.85;;;15.20;99.90;;;;;;6219643;22;20467;-85
2021/07/31 03:27:18;;;;;;;11.93;8.50;;;15.20;99.90;;;;;;6220282;22;20011;-84
2021/07/31 03:29:44;;;;;;;13.90;8.05;;;15.20;99.90;;;;;;6219080;22;20014;-85
2021/07/31 03:32:13;;;;;;;13.75;7.88;;;15.20;99.90;;;;;;6196529;22;20312;-85
2021/07/31 03:34:38;;;;;;;17.55;8.77;;;15.20;99.90;;;;;;6219919;22;20034;-86
2021/07/31 03:37:04;;;;;;;16.35;8.55;;;15.20;99.90;;;;;;6195938;22;20372;-84
2021/07/31 03:39:30;;;;;;;16.63;9.40;;;15.30;99.90;;;;;;6194768;22;20114;-85
2021/07/31 03:41:57;;;;;;;18.10;9.02;;;15.30;99.90;;;;;;6245106;22;20077;-85
2021/07/31 03:44:23;;;;;;;14.90;8.30;;;15.30;99.90;;;;;;6219098;22;20355;-86
2021/07/31 03:46:49;;;;;;;14.98;8.75;;;15.30;99.90;;;;;;6221703;22;20022;-85
2021/07/31 03:49:16;;;;;;;14.50;9.05;;;15.30;99.90;;;;;;6245785;22;20007;-85
2021/07/31 03:51:41;;;;;;;19.48;9.43;;;15.30;99.90;;;;;;6246231;22;20333;-86
2021/07/31 03:54:07;;;;;;;17.33;9.43;;;15.30;99.90;;;;;;6245648;22;20016;-84
2021/07/31 03:56:34;;;;;;;18.42;8.95;;;15.30;99.90;;;;;;6220743;22;20047;-85
2021/07/31 03:58:59;;;;;;;17.70;9.45;;;15.30;99.90;;;;;;6238216;22;20023;-87
2021/07/31 04:01:27;;;;;;;19.05;9.38;;;15.30;99.90;;;;;;6231318;22;20071;-83
2021/07/31 04:03:53;;;;;;;16.33;8.98;;;15.30;99.90;;;;;;6219294;22;20011;-84
2021/07/31 04:06:19;;;;;;;14.15;8.80;;;15.40;99.90;;;;;;6244325;22;20022;-84
2021/07/31 04:08:45;;;;;;;16.60;9.05;;;15.30;99.90;;;;;;6220671;22;20393;-84
2021/07/31 04:11:11;;;;;;;15.23;8.52;;;15.40;99.90;;;;;;6219952;22;20035;-83
2021/07/31 04:13:38;;;;;;;14.95;8.45;;;15.40;99.90;;;;;;6245459;22;20020;-83
2021/07/31 04:16:07;;;;;;;14.43;8.02;;;15.40;99.90;;;;;;6245777;22;20099;-85
2021/07/31 04:18:34;;;;;;;14.88;8.40;;;15.40;99.90;;;;;;6245378;22;20077;-83
2021/07/31 04:21:00;;;;;;;16.55;8.05;;;15.40;99.90;;;;;;6244855;22;20009;-84
2021/07/31 04:23:27;;;;;;;16.90;9.85;;;15.40;99.90;;;;;;6221883;22;20311;-85
2021/07/31 04:25:52;;;;;;;16.92;10.80;;;15.40;99.90;;;;;;6221503;22;20016;-83
2021/07/31 04:28:18;;;;;;;20.25;10.95;;;15.40;99.90;;;;;;6221553;22;20492;-83
2021/07/31 04:30:45;;;;;;;16.98;10.40;;;15.30;99.90;;;;;;6247161;22;20016;-83
2021/07/31 04:33:12;;;;;;;18.85;10.30;;;15.30;99.90;;;;;;6222395;22;20018;-83
2021/07/31 04:35:57;;;;;;;18.98;11.63;;;15.30;99.90;;;;;;6235947;22;20399;-85
2021/07/31 04:38:23;;;;;;;16.38;9.90;;;15.20;99.90;;;;;;6223834;22;20016;-83
2021/07/31 04:40:49;;;;;;;25.10;11.23;;;15.20;99.90;;;;;;6220964;22;20061;-83
2021/07/31 04:43:15;;;;;;;18.55;10.25;;;15.20;99.90;;;;;;6221645;22;20014;-85
2021/07/31 04:45:41;;;;;;;20.63;10.50;;;15.20;99.90;;;;;;6221912;22;20503;-84
2021/07/31 04:48:07;;;;;;;21.38;10.80;;;15.20;99.90;;;;;;6221905;22;20019;-84
2021/07/31 04:50:32;;;;;;;19.85;10.15;;;15.20;99.90;;;;;;6221147;22;20015;-83
2021/07/31 04:52:58;;;;;;;14.32;9.48;;;15.20;99.90;;;;;;6221314;22;20008;-83
2021/07/31 04:55:24;;;;;;;21.58;10.40;;;15.30;99.90;;;;;;6220614;22;20015;-83
2021/07/31 04:57:50;;;;;;;15.43;8.93;;;15.20;99.90;;;;;;6246660;22;20042;-86
2021/07/31 05:00:16;;;;;;;14.57;9.55;;;15.20;99.90;;;;;;6220786;22;20483;-82
2021/07/31 05:02:41;;;;;;;20.55;9.32;;;15.30;99.90;;;;;;6222588;22;20069;-83
2021/07/31 05:05:08;;;;;;;16.30;8.63;;;15.30;99.90;;;;;;6248039;22;20145;-85
2021/07/31 05:07:33;;;;;;;17.63;9.20;;;15.30;99.90;;;;;;6222938;22;20024;-85
2021/07/31 05:09:59;;;;;;;15.50;8.77;;;15.30;99.90;;;;;;6223858;22;20380;-83
2021/07/31 05:12:25;;;;;;;14.57;8.75;;;15.40;99.90;;;;;;6223899;22;20030;-84
2021/07/31 05:14:52;;;;;;;21.00;9.43;;;15.40;99.90;;;;;;6224176;22;20019;-84
2021/07/31 05:17:21;;;;;;;14.85;8.00;;;15.40;99.90;;;;;;6223207;22;20011;-84
2021/07/31 05:19:48;;;;;;;16.63;7.88;;;15.40;99.90;;;;;;6221791;22;20543;-85
2021/07/31 05:22:15;;;;;;;14.80;8.00;;;15.50;99.90;;;;;;6222713;22;20065;-85
2021/07/31 05:24:42;;;;;;;16.77;7.53;;;15.50;99.90;;;;;;6247468;22;20012;-84
2021/07/31 05:27:08;;;;;;;18.70;8.35;;;15.50;99.90;;;;;;6248167;22;20355;-84
2021/07/31 05:29:34;;;;;;;17.00;7.65;;;15.50;99.90;;;;;;6222980;22;20039;-86
2021/07/31 05:32:00;;;;;;;17.85;7.68;;;15.50;99.90;;;;;;6247465;22;20083;-85
2021/07/31 05:34:26;;;;;;;19.10;6.97;;;15.50;99.90;;;;;;6222546;22;20090;-84
2021/07/31 05:36:52;;;;;;;14.82;7.45;;;15.50;99.90;;;;;;6247136;22;20026;-85
2021/07/31 05:39:18;;;;;;;20.15;7.13;;;15.50;99.90;;;;;;6221378;22;20012;-85
2021/07/31 05:41:44;;;;;;;11.88;6.40;;;15.60;99.90;;;;;;6247277;22;20061;-84
2021/07/31 05:44:10;;;;;;;14.52;7.05;;;15.60;99.90;;;;;;6274267;22;20012;-84
2021/07/31 05:46:35;;;;;;;15.10;7.03;;;15.60;99.90;;;;;;6221301;22;20351;-84
2021/07/31 05:49:02;;;;;;;14.85;7.22;;;15.50;99.90;;;;;;6221988;22;20012;-84
2021/07/31 05:51:28;;;;;;;16.77;7.07;;;15.50;99.90;;;;;;6245417;22;20393;-83
2021/07/31 05:53:54;;;;;;;17.40;7.03;;;15.50;99.90;;;;;;6247140;22;20014;-84
2021/07/31 05:56:20;;;;;;;17.13;6.78;;;15.40;99.90;;;;;;6220712;22;20015;-84
2021/07/31 05:58:45;;;;;;;20.40;7.47;;;15.40;99.90;;;;;;6220901;22;20031;-84
2021/07/31 06:01:12;;;;;;;18.95;7.55;;;15.50;99.90;;;;;;6260637;22;20015;-85
2021/07/31 06:03:38;;;;;;;19.67;6.95;;;15.50;99.90;;;;;;6215472;22;20020;-84
2021/07/31 06:06:04;;;;;;;13.38;6.72;;;15.50;99.90;;;;;;6218864;22;20050;-85
2021/07/31 06:08:30;;;;;;;21.48;7.03;;;15.50;99.90;;;;;;6244808;22;20467;-84
2021/07/31 06:11:03;;;;;;;18.65;6.65;;;15.50;99.90;;;;;;6221010;22;20058;-83
2021/07/31 06:13:30;;;;;;;18.70;6.80;;;15.60;99.90;;;;;;6246027;22;20030;-84
2021/07/31 06:15:56;;;;;;;14.05;7.10;;;15.50;99.90;;;;;;6221399;22;20073;-84
2021/07/31 06:18:23;;;;;;;19.05;7.40;;;15.50;99.90;;;;;;6220714;22;20012;-85
2021/07/31 06:20:50;;;;;;;20.65;6.93;;;15.60;99.90;;;;;;6220913;22;20103;-84
2021/07/31 06:23:16;;;;;;;20.40;7.82;;;15.50;99.90;;;;;;6218864;22;20012;-84
2021/07/31 06:25:42;;;;;;;23.63;7.63;;;15.50;99.90;;;;;;6244032;22;20011;-85
2021/07/31 06:28:08;;;;;;;16.00;7.53;;;15.50;99.90;;;;;;6219255;22;20038;-83
2021/07/31 06:30:34;;;;;;;20.27;7.25;;;15.50;99.90;;;;;;6216639;22;20089;-84
2021/07/31 06:33:00;;;;;;;21.73;7.35;;;15.60;99.90;;;;;;6218678;22;20007;-84
2021/07/31 06:35:25;;;;;;;16.83;6.38;;;15.60;99.90;;;;;;6244965;22;20466;-84
2021/07/31 06:37:52;;;;;;;20.75;7.20;;;15.60;99.90;;;;;;6220390;22;20336;-84
2021/07/31 06:40:18;;;;;;;15.95;6.65;;;15.60;99.90;;;;;;6246469;22;20012;-83
2021/07/31 06:42:43;;;;;;;15.68;6.95;;;15.70;99.90;;;;;;6244436;22;20019;-85
2021/07/31 06:45:10;;;;;;;18.92;6.45;;;15.90;99.90;;;;;;6218555;22;20336;-83
2021/07/31 06:47:35;;;;;;;14.98;5.63;;;16.00;99.90;;;;;;6215739;22;20023;-84
2021/07/31 06:50:01;;;;;;;16.00;5.82;;;16.00;99.90;;;;;;6212456;22;20207;-84
2021/07/31 06:52:27;;;;;;;19.88;6.45;;;16.00;99.90;;;;;;6216871;22;20016;-83
2021/07/31 06:54:53;;;;;;;15.35;6.07;;;16.10;99.90;;;;;;6242781;22;20090;-83
2021/07/31 06:57:18;;;;;;;22.67;6.78;;;16.00;99.90;;;;;;6217414;22;20057;-84
2021/07/31 06:59:44;;;;;;;13.90;5.80;;;16.00;99.90;;;;;;6214192;22;20011;-84
2021/07/31 07:02:10;;;;;;;17.17;6.40;;;16.00;99.90;;;;;;6213854;22;20214;-84
2021/07/31 07:04:36;;;;;;;24.83;7.15;;;16.00;99.90;;;;;;6239197;22;20015;-84
2021/07/31 07:07:01;;;;;;;23.67;7.05;;;15.90;99.90;;;;;;6242653;22;20027;-83
2021/07/31 07:09:27;;;;;;;19.98;8.07;;;15.90;99.90;;;;;;6191365;22;20012;-84
2021/07/31 07:11:53;;;;;;;32.28;9.82;;;15.80;99.90;;;;;;6241449;22;20015;-85
2021/07/31 07:14:19;;;;;;;25.08;9.43;;;15.80;99.90;;;;;;6213229;22;20395;-86
2021/07/31 07:16:45;;;;;;;26.15;9.55;;;15.60;99.90;;;;;;6241967;22;20024;-85
2021/07/31 07:19:11;;;;;;;25.27;9.93;;;15.50;99.90;;;;;;6241627;22;20091;-84
2021/07/31 07:21:37;;;;;;;29.20;10.55;;;15.40;99.90;;;;;;6216697;22;20008;-86
2021/07/31 07:24:03;;;;;;;22.83;10.73;;;15.30;99.90;;;;;;6240358;22;20077;-84
2021/07/31 07:26:28;;;;;;;30.20;10.68;;;15.30;99.90;;;;;;6214200;22;20140;-85
2021/07/31 07:28:54;;;;;;;24.20;9.77;;;15.20;99.90;;;;;;6241976;22;20018;-83
2021/07/31 07:31:20;;;;;;;32.22;10.15;;;15.20;99.90;;;;;;6194125;22;20019;-83
2021/07/31 07:33:46;;;;;;;30.08;10.32;;;15.20;99.90;;;;;;6244491;22;20011;-85
2021/07/31 07:36:16;;;;;;;28.88;10.27;;;15.30;99.90;;;;;;6194219;22;20069;-83
2021/07/31 07:38:46;;;;;;;23.73;9.23;;;15.30;99.90;;;;;;6244559;22;20011;-85
2021/07/31 07:41:13;;;;;;;28.83;9.65;;;15.30;99.90;;;;;;6246425;22;20011;-82
2021/07/31 07:43:39;;;;;;;27.15;10.00;;;15.30;99.90;;;;;;6221559;22;20074;-84
2021/07/31 07:46:05;;;;;;;21.00;9.18;;;15.30;99.90;;;;;;6221919;22;20015;-83
2021/07/31 07:48:32;;;;;;;33.85;11.70;;;15.30;99.90;;;;;;6272082;22;20320;-83
2021/07/31 07:50:58;;;;;;;22.65;10.10;;;15.30;99.90;;;;;;6245999;22;20444;-84
2021/07/31 07:53:24;;;;;;;28.90;9.50;;;15.30;99.90;;;;;;6245523;22;20296;-83
2021/07/31 07:55:50;;;;;;;21.42;8.75;;;15.30;99.90;;;;;;6245249;22;20016;-84
2021/07/31 07:58:16;;;;;;;28.58;9.85;;;15.30;99.90;;;;;;6244733;22;20028;-83
2021/07/31 08:00:44;;;;;;;36.58;9.75;;;15.20;99.90;;;;;;6194405;22;20012;-83
2021/07/31 08:03:10;;;;;;;28.42;9.43;;;15.30;99.90;;;;;;6219828;22;20019;-84
2021/07/31 08:05:38;;;;;;;25.73;8.43;;;15.30;99.90;;;;;;6220761;22;20349;-84
2021/07/31 08:08:05;;;;;;;28.38;9.85;;;15.30;99.90;;;;;;6219964;22;20030;-85
2021/07/31 08:10:32;;;;;;;20.85;10.30;;;15.40;99.90;;;;;;6219455;22;20339;-85
2021/07/31 08:12:57;;;;;;;34.63;9.90;;;15.50;99.90;;;;;;6219741;22;20083;-83
2021/07/31 08:15:23;;;;;;;23.13;10.43;;;15.60;99.90;;;;;;6219639;22;20047;-82
2021/07/31 08:17:50;;;;;;;23.77;10.02;;;15.70;99.90;;;;;;6271754;22;20369;-83
2021/07/31 08:20:16;;;;;;;29.20;10.48;;;15.80;99.90;;;;;;6244303;22;20018;-84
2021/07/31 08:22:42;;;;;;;25.40;7.55;;;16.00;99.90;;;;;;6219473;22;20008;-83
2021/07/31 08:25:09;;;;;;;24.05;7.45;;;16.10;99.90;;;;;;6245034;22;20496;-84
2021/07/31 08:27:35;;;;;;;29.42;7.05;;;16.20;99.90;;;;;;6271698;22;20505;-83
2021/07/31 08:30:01;;;;;;;24.52;7.47;;;16.20;99.90;;;;;;6219525;22;20014;-85
2021/07/31 08:32:27;;;;;;;22.23;7.97;;;16.20;99.90;;;;;;6219976;22;20313;-84
2021/07/31 08:34:53;;;;;;;20.70;6.40;;;16.20;99.90;;;;;;6219432;22;20077;-86
2021/07/31 08:37:19;;;;;;;20.40;6.10;;;16.20;99.90;;;;;;6220672;22;20008;-83
2021/07/31 08:39:45;;;;;;;30.70;7.75;;;16.20;99.90;;;;;;6194803;22;20031;-84
2021/07/31 08:42:12;;;;;;;26.25;7.40;;;16.30;99.90;;;;;;6220070;22;20463;-84
2021/07/31 08:44:38;;;;;;;25.83;6.80;;;16.30;99.90;;;;;;6219694;22;20095;-84
2021/07/31 08:47:06;;;;;;;24.77;7.43;;;16.30;99.90;;;;;;6220673;22;20012;-84
2021/07/31 08:49:34;;;;;;;17.92;7.53;;;16.30;99.90;;;;;;6244572;22;20012;-85
2021/07/31 08:52:01;;;;;;;28.80;7.13;;;16.30;99.90;;;;;;6219165;22;20012;-85
2021/07/31 08:54:27;;;;;;;23.58;6.35;;;16.30;99.90;;;;;;6218682;22;20007;-82
2021/07/31 08:56:54;;;;;;;25.52;7.63;;;16.20;99.90;;;;;;6244681;22;20019;-85
2021/07/31 08:59:31;;;;;;;23.25;7.57;;;16.10;99.90;;;;;;6270549;22;20019;-84
2021/07/31 09:01:58;;;;;;;22.63;7.70;;;16.00;99.90;;;;;;6244014;22;20077;-84
2021/07/31 09:04:24;;;;;;;23.20;6.55;;;16.00;99.90;;;;;;6244610;22;20015;-85
2021/07/31 09:06:51;;;;;;;23.73;8.18;;;15.90;99.90;;;;;;6271116;22;20325;-87
2021/07/31 09:09:24;;;;;;;22.95;7.45;;;15.90;99.90;;;;;;6245248;22;20027;-83
2021/07/31 09:12:02;;;;;;;18.27;6.57;;;16.00;99.90;;;;;;6222436;22;20054;-83
2021/07/31 09:14:29;;;;;;;26.42;7.63;;;16.00;99.90;;;;;;6273266;22;20294;-84
2021/07/31 09:16:56;;;;;;;19.67;7.93;;;16.10;99.90;;;;;;6220755;22;20069;-83
2021/07/31 09:19:24;;;;;;;22.58;7.78;;;16.20;99.90;;;;;;6245733;22;20463;-83
2021/07/31 09:21:51;;;;;;;22.88;7.32;;;16.20;99.90;;;;;;6221991;22;20375;-86
2021/07/31 09:24:22;;;;;;;15.75;6.93;;;16.30;99.90;;;;;;6246583;22;20031;-83
2021/07/31 09:26:53;;;;;;;22.48;7.93;;;16.40;99.90;;;;;;6246085;22;20623;-83
2021/07/31 09:29:24;;;;;;;13.98;5.10;;;16.50;99.90;;;;;;6272802;22;20008;-84
2021/07/31 09:31:54;;;;;;;17.25;4.85;;;16.60;99.90;;;;;;6273998;22;20019;-83
2021/07/31 09:34:46;;;;;;;15.05;4.65;;;16.70;99.90;;;;;;6274598;22;20379;-83
2021/07/31 09:37:25;;;;;;;13.95;5.60;;;16.80;99.90;;;;;;6256332;22;20007;-83
2021/07/31 09:39:59;;;;;;;16.83;5.18;;;16.90;99.90;;;;;;6246363;22;20019;-83
2021/07/31 09:42:31;;;;;;;18.77;6.70;;;17.00;99.90;;;;;;6247359;22;20008;-84
2021/07/31 09:45:03;;;;;;;19.10;6.20;;;17.10;99.90;;;;;;6222798;22;20012;-82
2021/07/31 09:47:29;;;;;;;14.23;4.93;;;17.30;99.90;;;;;;6248247;22;20046;-83
2021/07/31 09:49:58;;;;;;;12.88;3.95;;;17.40;99.90;;;;;;6248494;22;20014;-83
2021/07/31 09:52:25;;;;;;;12.48;3.78;;;17.50;99.90;;;;;;6222953;22;20087;-83
2021/07/31 09:54:52;;;;;;;15.10;4.18;;;17.60;99.90;;;;;;6223204;22;20082;-83
2021/07/31 09:57:18;;;;;;;10.82;3.50;;;17.50;99.90;;;;;;6221768;22;20042;-84
2021/07/31 09:59:48;;;;;;;9.23;3.70;;;17.60;99.90;;;;;;6246370;22;20012;-82
2021/07/31 10:02:18;;;;;;;13.80;3.65;;;17.70;99.90;;;;;;6245725;22;20008;-83
2021/07/31 10:04:46;;;;;;;16.27;3.47;;;17.80;99.90;;;;;;6246427;22;20008;-83
2021/07/31 10:07:16;;;;;;;16.17;4.50;;;17.80;99.90;;;;;;6247751;22;20034;-84
2021/07/31 10:09:49;;;;;;;13.32;4.10;;;17.80;99.90;;;;;;6221295;22;20046;-83
2021/07/31 10:12:17;;;;;;;10.98;4.03;;;17.90;99.90;;;;;;6195869;22;20051;-83
2021/07/31 10:14:44;;;;;;;10.75;3.60;;;17.90;99.90;;;;;;6246452;22;20095;-81
2021/07/31 10:17:11;;;;;;;15.05;3.90;;;18.00;99.90;;;;;;6272820;22;20452;-83
2021/07/31 10:19:47;;;;;;;9.10;3.50;;;18.00;99.90;;;;;;6220853;22;20020;-83
2021/07/31 10:22:14;;;;;;;10.43;3.30;;;18.00;99.90;;;;;;6283131;22;20011;-83
2021/07/31 10:25:00;;;;;;;12.98;3.30;;;18.10;99.90;;;;;;6247294;22;20018;-83
2021/07/31 10:27:26;;;;;;;11.75;3.72;;;18.20;99.90;;;;;;6245564;22;20518;-83
2021/07/31 10:29:53;;;;;;;10.70;2.92;;;18.20;99.90;;;;;;6273201;22;20038;-85
2021/07/31 10:32:19;;;;;;;9.80;2.75;;;18.30;99.90;;;;;;6221428;22;20007;-83
2021/07/31 10:34:45;;;;;;;11.10;3.08;;;18.20;99.90;;;;;;6246392;22;20011;-84
2021/07/31 10:37:29;;;;;;;8.07;2.90;;;18.20;99.90;;;;;;6245906;22;20036;-82
2021/07/31 10:39:59;;;;;;;9.05;2.63;;;18.10;99.90;;;;;;6246674;22;20440;-84
2021/07/31 10:42:26;;;;;;;9.27;2.95;;;18.00;99.90;;;;;;6221987;22;20360;-83
2021/07/31 10:45:16;;;;;;;10.15;2.90;;;18.00;99.90;;;;;;6221619;22;20384;-84
2021/07/31 10:47:47;;;;;;;10.35;3.28;;;18.10;99.90;;;;;;6245366;22;20355;-83
2021/07/31 10:50:28;;;;;;;8.35;3.00;;;18.30;99.90;;;;;;6245631;22;20091;-84
2021/07/31 10:53:00;;;;;;;10.05;3.00;;;18.40;99.90;;;;;;6221163;22;20023;-83
2021/07/31 10:55:27;;;;;;;;;;;18.40;99.90;;;;;;6221659;22;20452;-82
2021/07/31 10:57:52;;;;;;;9.90;3.03;;;18.40;99.90;;;;;;6245518;22;19953;-84
2021/07/31 11:00:25;;;;;;;14.27;3.50;;;18.30;99.90;;;;;;6255745;22;20012;-85
2021/07/31 11:02:52;;;;;;;9.57;3.20;;;18.20;99.90;;;;;;6239901;22;20011;-85
2021/07/31 11:05:18;;;;;;;14.98;3.55;;;18.10;99.90;;;;;;6224367;22;20026;-84
2021/07/31 11:08:01;;;;;;;11.25;3.70;;;18.10;99.90;;;;;;6244791;22;20046;-84
2021/07/31 11:10:30;;;;;;;17.48;4.38;;;18.00;99.90;;;;;;6245504;22;20011;-84
2021/07/31 11:12:57;;;;;;;9.98;3.15;;;18.10;99.90;;;;;;6245050;22;20344;-83
2021/07/31 11:15:23;;;;;;;12.13;2.92;;;18.20;99.90;;;;;;6246308;22;20011;-83
2021/07/31 11:17:59;;;;;;;9.25;2.90;;;18.30;99.90;;;;;;6245678;22;20011;-84
2021/07/31 11:20:45;;;;;;;12.65;3.78;;;18.50;99.90;;;;;;6230954;22;20020;-84
2021/07/31 11:23:12;;;;;;;12.88;3.00;;;18.60;99.90;;;;;;6245134;22;20092;-82
2021/07/31 11:25:42;;;;;;;10.10;3.40;;;18.60;99.90;;;;;;6221024;22;20228;-84
2021/07/31 11:28:09;;;;;;;9.52;3.50;;;18.50;99.90;;;;;;6272137;22;20011;-85
2021/07/31 11:30:36;;;;;;;10.77;4.43;;;18.40;99.90;;;;;;6219803;22;20012;-84
2021/07/31 11:33:32;;;;;;;12.30;4.22;;;18.30;99.90;;;;;;6244929;22;20041;-84
2021/07/31 11:36:10;;;;;;;11.32;3.95;;;18.30;99.90;;;;;;6207305;22;20016;-84
2021/07/31 11:38:37;;;;;;;6.45;3.50;;;18.30;99.90;;;;;;6281559;22;20475;-85
2021/07/31 11:41:13;;;;;;;11.15;3.85;;;18.10;99.90;;;;;;6245492;22;20227;-83
2021/07/31 11:43:51;;;;;;;8.23;4.10;;;18.00;99.90;;;;;;6220327;22;20011;-85
2021/07/31 11:46:42;;;;;;;8.63;4.15;;;17.90;99.90;;;;;;6245177;22;20012;-85
2021/07/31 11:49:10;;;;;;;12.75;4.88;;;17.90;99.90;;;;;;6244903;22;20035;-84
2021/07/31 11:51:45;;;;;;;14.82;5.00;;;17.90;99.90;;;;;;6245571;22;20012;-83
2021/07/31 11:54:12;;;;;;;12.57;5.20;;;18.10;99.90;;;;;;6220993;22;20015;-84
2021/07/31 11:56:40;;;;;;;12.52;4.53;;;18.30;99.90;;;;;;6272717;22;20070;-84
2021/07/31 11:59:06;;;;;;;10.15;4.40;;;18.50;99.90;;;;;;6220012;22;20356;-85
2021/07/31 12:01:34;;;;;;;13.68;5.53;;;18.60;99.90;;;;;;6245489;22;20007;-84
2021/07/31 12:04:00;;;;;;;15.15;5.63;;;18.50;99.90;;;;;;6244708;22;20497;-84
2021/07/31 12:06:42;;;;;;;14.15;5.45;;;18.20;99.90;;;;;;6271638;22;20019;-84
2021/07/31 12:09:19;;;;;;;10.48;5.43;;;17.80;99.90;;;;;;6281865;22;20046;-86
2021/07/31 12:11:47;;;;;;;11.07;5.50;;;17.40;99.90;;;;;;6271246;22;20007;-86
2021/07/31 12:14:29;;;;;;;15.27;6.90;;;17.10;99.90;;;;;;6218797;22;20007;-85
2021/07/31 12:17:21;;;;;;;13.18;7.78;;;16.90;99.90;;;;;;6271379;22;20019;-85
2021/07/31 12:19:53;;;;;;;16.80;9.45;;;16.90;99.90;;;;;;6244098;22;20011;-85
2021/07/31 12:22:20;;;;;;;;;;;17.00;99.90;;;;;;6254109;22;20016;-84
2021/07/31 12:25:22;;;;;;;10.48;5.78;;;17.20;99.90;;;;;;6271471;22;19911;-86
2021/07/31 12:28:00;;;;;;;13.60;7.45;;;17.40;99.90;;;;;;6223432;22;20011;-84
2021/07/31 12:30:27;;;;;;;14.65;7.13;;;17.50;99.90;;;;;;6270746;22;20478;-84
2021/07/31 12:32:58;;;;;;;9.13;3.90;;;17.40;99.90;;;;;;6244129;22;20403;-85
2021/07/31 12:35:30;;;;;;;7.65;3.88;;;17.30;99.90;;;;;;6230056;22;20019;-84
2021/07/31 12:37:56;;;;;;;7.13;4.30;;;17.10;99.90;;;;;;6218676;22;20018;-84
2021/07/31 12:40:21;;;;;;;11.10;3.97;;;16.90;99.90;;;;;;6218393;22;20039;-85
2021/07/31 12:42:47;;;;;;;7.25;4.35;;;16.90;99.90;;;;;;6243841;22;20054;-85